Time;durP1;ratioP1;P1;durP2;ratioP2;P2;SDS_P1;SDS_P2;PMS_P1;PMS_P2;Temp;Humidity;BMP_temperature;BMP_pressure;BME280_temperature;BME280_humidity;BME280_pressure;Samples;Min_cycle;Max_cycle;Signal;HPM_P1;HPM_P2
2021/07/10 00:00:33;;;;;;;2.45;2.28;;;;;;;14.42;80.43;96934.50;5072340;28;20044;-73
2021/07/10 00:03:00;;;;;;;3.03;2.83;;;;;;;14.36;80.49;96925.69;5072592;28;20036;-74
2021/07/10 00:05:26;;;;;;;2.40;2.30;;;;;;;14.34;80.53;96925.13;5071749;28;20060;-73
2021/07/10 00:07:52;;;;;;;2.92;2.50;;;;;;;14.33;80.56;96928.00;5072242;28;20044;-74
2021/07/10 00:10:20;;;;;;;2.50;2.30;;;;;;;14.28;80.57;96926.03;5072011;28;20070;-74
2021/07/10 00:12:46;;;;;;;2.55;2.35;;;;;;;14.27;80.60;96929.69;5072603;28;20040;-74
2021/07/10 00:15:15;;;;;;;2.88;2.67;;;;;;;14.26;80.44;96925.47;5071691;28;20048;-73
2021/07/10 00:17:42;;;;;;;2.90;2.78;;;;;;;14.24;80.70;96916.16;5072962;28;20043;-73
2021/07/10 00:20:10;;;;;;;2.92;2.70;;;;;;;14.19;80.79;96907.13;5075810;28;20389;-74
2021/07/10 00:22:37;;;;;;;2.75;2.55;;;;;;;14.17;80.67;96916.28;5075860;28;20036;-74
2021/07/10 00:25:12;;;;;;;3.10;2.90;;;;;;;14.14;80.95;96917.53;5075178;28;20048;-74
2021/07/10 00:27:39;;;;;;;3.05;2.85;;;;;;;14.14;80.94;96908.81;5075337;28;20036;-74
2021/07/10 00:30:07;;;;;;;3.42;3.20;;;;;;;14.15;80.92;96908.59;5074169;28;20036;-74
2021/07/10 00:32:33;;;;;;;3.13;2.92;;;;;;;14.14;80.88;96904.34;5075065;28;20469;-74
2021/07/10 00:34:59;;;;;;;2.90;2.80;;;;;;;14.15;81.09;96910.41;5075133;28;20048;-73
2021/07/10 00:37:25;;;;;;;3.47;3.28;;;;;;;14.12;80.90;96898.50;5074845;28;20055;-74
2021/07/10 00:39:51;;;;;;;4.57;4.28;;;;;;;14.09;81.05;96890.22;5075691;28;20039;-73
2021/07/10 00:42:21;;;;;;;4.35;4.05;;;;;;;14.08;81.00;96894.72;5075352;28;20484;-74
2021/07/10 00:44:50;;;;;;;3.42;3.22;;;;;;;14.06;81.25;96894.13;5075095;28;20475;-73
2021/07/10 00:47:17;;;;;;;3.53;3.35;;;;;;;14.06;81.14;96891.50;5075487;28;20040;-73
2021/07/10 00:49:43;;;;;;;3.30;3.10;;;;;;;14.05;81.09;96883.81;5074901;28;20044;-74
2021/07/10 00:52:10;;;;;;;3.20;3.00;;;;;;;14.02;81.10;96877.97;5075386;28;20381;-74
2021/07/10 00:54:37;;;;;;;3.85;3.15;;;;;;;14.01;80.98;96879.00;5074686;28;20044;-74
2021/07/10 00:57:04;;;;;;;3.17;2.90;;;;;;;13.98;80.95;96871.56;5075404;28;20384;-73
2021/07/10 00:59:32;;;;;;;3.25;3.05;;;;;;;13.97;80.96;96869.94;5075148;28;20476;-74
2021/07/10 01:01:59;;;;;;;3.33;3.10;;;;;;;13.95;80.84;96871.22;5075089;28;20040;-74
2021/07/10 01:04:25;;;;;;;3.25;3.05;;;;;;;13.89;80.69;96872.91;5075496;28;20044;-73
2021/07/10 01:06:51;;;;;;;3.15;2.95;;;;;;;13.88;80.83;96873.13;5073645;28;20055;-76
2021/07/10 01:09:17;;;;;;;3.30;3.00;;;;;;;13.85;81.07;96873.59;5075039;28;20040;-74
2021/07/10 01:11:44;;;;;;;3.05;2.85;;;;;;;13.82;80.88;96872.25;5074282;28;20048;-73
2021/07/10 01:14:11;;;;;;;2.97;2.78;;;;;;;13.80;81.01;96876.94;5074772;28;20044;-73
2021/07/10 01:16:37;;;;;;;3.15;2.95;;;;;;;13.76;81.09;96870.50;5075366;28;20033;-73
2021/07/10 01:19:03;;;;;;;2.97;2.55;;;;;;;13.74;80.97;96869.94;5074806;28;20047;-73
2021/07/10 01:21:30;;;;;;;3.08;2.88;;;;;;;13.72;81.13;96872.78;5074130;28;20488;-73
2021/07/10 01:23:56;;;;;;;2.72;2.63;;;;;;;13.69;81.08;96864.53;5074322;28;20044;-74
2021/07/10 01:26:22;;;;;;;2.50;2.40;;;;;;;13.66;81.09;96863.16;5073333;28;20041;-74
2021/07/10 01:28:48;;;;;;;2.65;2.45;;;;;;;13.65;81.09;96861.56;5073464;28;20036;-73
2021/07/10 01:31:16;;;;;;;3.00;2.80;;;;;;;13.63;81.08;96865.44;5074666;28;20361;-74
2021/07/10 01:33:42;;;;;;;2.47;2.33;;;;;;;13.60;81.04;96856.16;5074445;28;20032;-74
2021/07/10 01:36:08;;;;;;;3.00;2.80;;;;;;;13.58;80.96;96853.72;5074553;28;20055;-74
2021/07/10 01:38:34;;;;;;;3.03;2.83;;;;;;;13.54;80.98;96849.97;5073518;28;20055;-74
2021/07/10 01:41:00;;;;;;;2.85;2.63;;;;;;;13.51;80.97;96850.41;5074547;28;20037;-74
2021/07/10 01:43:26;;;;;;;2.70;2.60;;;;;;;13.50;81.04;96848.00;5074889;28;20028;-74
2021/07/10 01:45:53;;;;;;;3.60;3.40;;;;;;;13.49;81.08;96851.66;5080125;28;20045;-73
2021/07/10 01:48:20;;;;;;;4.03;3.47;;;;;;;13.46;81.14;96846.84;5066306;28;20048;-74
2021/07/10 01:50:49;;;;;;;2.78;2.67;;;;;;;13.44;81.22;96849.72;5070331;28;20040;-74
2021/07/10 01:53:16;;;;;;;3.42;3.22;;;;;;;13.40;81.14;96840.66;5070999;28;20036;-74
2021/07/10 01:55:42;;;;;;;3.53;2.80;;;;;;;13.36;81.22;96840.28;5068371;28;20036;-75
2021/07/10 01:58:09;;;;;;;3.75;3.45;;;;;;;13.33;81.33;96832.84;5073966;28;20036;-74
2021/07/10 02:00:43;;;;;;;3.55;2.88;;;;;;;13.30;81.39;96837.78;5071397;28;20469;-74
2021/07/10 02:03:10;;;;;;;3.53;3.22;;;;;;;13.27;81.34;96841.63;5072868;28;20052;-74
2021/07/10 02:05:36;;;;;;;2.95;2.85;;;;;;;13.26;81.48;96833.94;5074083;28;20064;-74
2021/07/10 02:08:03;;;;;;;3.65;3.35;;;;;;;13.26;81.48;96837.38;5071717;28;20043;-74
2021/07/10 02:10:32;;;;;;;3.50;3.30;;;;;;;13.23;81.56;96824.66;5072585;28;20488;-73
2021/07/10 02:13:06;;;;;;;3.00;2.80;;;;;;;13.23;81.53;96826.47;5072294;28;20032;-74
2021/07/10 02:15:33;;;;;;;4.32;3.55;;;;;;;13.19;81.45;96819.03;5072860;28;20052;-73
2021/07/10 02:17:59;;;;;;;3.90;3.50;;;;;;;13.20;81.47;96818.00;5066335;28;20049;-74
2021/07/10 02:20:29;;;;;;;3.17;2.97;;;;;;;13.18;81.51;96814.00;5069950;28;20377;-74
2021/07/10 02:22:56;;;;;;;3.55;3.35;;;;;;;13.16;81.37;96808.94;5071071;28;20047;-74
2021/07/10 02:25:24;;;;;;;4.55;4.25;;;;;;;13.14;81.14;96805.72;5064931;28;20047;-74
2021/07/10 02:27:51;;;;;;;4.45;4.18;;;;;;;13.11;81.29;96802.75;5064444;28;20040;-74
2021/07/10 02:30:22;;;;;;;4.20;3.90;;;;;;;13.08;81.50;96800.56;5071382;28;20059;-74
2021/07/10 02:32:48;;;;;;;4.75;4.40;;;;;;;13.07;81.43;96797.13;5073638;28;20024;-74
2021/07/10 02:35:16;;;;;;;4.03;3.83;;;;;;;13.05;81.42;96799.19;5071419;28;20392;-74
2021/07/10 02:37:43;;;;;;;4.15;3.95;;;;;;;13.05;81.48;96793.13;5073563;28;20033;-74
2021/07/10 02:40:12;;;;;;;4.20;3.90;;;;;;;13.03;81.53;96792.53;5069683;28;20056;-74
2021/07/10 02:42:38;;;;;;;4.47;4.07;;;;;;;13.02;81.38;96786.50;5070922;28;20040;-74
2021/07/10 02:45:07;;;;;;;4.70;4.40;;;;;;;13.03;81.55;96795.19;5069933;28;20056;-74
2021/07/10 02:47:33;;;;;;;5.47;4.78;;;;;;;13.03;81.75;96797.81;5071497;28;20048;-74
2021/07/10 02:49:59;;;;;;;4.80;4.50;;;;;;;13.03;81.94;96792.53;5072959;28;20053;-74
2021/07/10 02:52:25;;;;;;;5.20;4.90;;;;;;;13.03;81.78;96792.53;5068220;28;20048;-74
2021/07/10 02:54:51;;;;;;;4.53;4.18;;;;;;;13.02;82.23;96793.56;5071988;28;20472;-73
2021/07/10 02:57:18;;;;;;;4.13;3.83;;;;;;;13.02;82.22;96797.03;5072387;28;20044;-73
2021/07/10 02:59:45;;;;;;;3.55;3.35;;;;;;;13.00;82.15;96794.59;5062779;28;20044;-74
2021/07/10 03:02:11;;;;;;;3.95;3.65;;;;;;;13.01;82.26;96790.13;5071588;28;20420;-73
2021/07/10 03:04:38;;;;;;;4.15;3.95;;;;;;;13.00;82.31;96791.16;5073095;28;20040;-74
2021/07/10 03:07:04;;;;;;;3.95;3.75;;;;;;;12.98;82.37;96787.97;5070755;28;20044;-75
2021/07/10 03:09:30;;;;;;;3.80;3.50;;;;;;;12.94;82.48;96776.28;5063125;28;20033;-73
2021/07/10 03:11:56;;;;;;;4.28;3.88;;;;;;;12.92;82.42;96776.50;5072854;28;20040;-73
2021/07/10 03:14:22;;;;;;;4.43;4.15;;;;;;;12.89;82.66;96773.50;5055260;28;20045;-74
2021/07/10 03:16:48;;;;;;;4.07;3.78;;;;;;;12.89;82.82;96779.59;5066219;28;20044;-74
2021/07/10 03:19:14;;;;;;;4.97;4.68;;;;;;;12.89;83.04;96778.75;5063290;28;20084;-74
2021/07/10 03:21:42;;;;;;;4.88;4.57;;;;;;;12.87;82.93;96781.63;5071593;28;20036;-74
2021/07/10 03:24:08;;;;;;;4.93;4.47;;;;;;;12.85;83.22;96781.06;5072603;28;20044;-73
2021/07/10 03:26:34;;;;;;;4.60;4.30;;;;;;;12.85;83.21;96778.44;5072156;28;20404;-75
2021/07/10 03:29:00;;;;;;;5.47;5.18;;;;;;;12.84;83.44;96781.28;5065258;28;20044;-74
2021/07/10 03:31:27;;;;;;;4.93;4.60;;;;;;;12.83;83.53;96782.28;5067862;28;20040;-74
2021/07/10 03:33:53;;;;;;;5.68;5.20;;;;;;;12.82;83.57;96780.69;5067809;28;20386;-74
2021/07/10 03:36:19;;;;;;;5.40;5.00;;;;;;;12.80;83.67;96778.28;5070149;28;20469;-74
2021/07/10 03:38:45;;;;;;;5.57;5.07;;;;;;;12.82;83.75;96778.84;5068920;28;20040;-74
2021/07/10 03:41:14;;;;;;;4.75;4.55;;;;;;;12.80;83.75;96771.19;5068844;28;20045;-75
2021/07/10 03:43:41;;;;;;;4.97;4.68;;;;;;;12.82;83.81;96772.78;5056498;28;20036;-74
2021/07/10 03:46:07;;;;;;;5.13;4.72;;;;;;;12.80;83.95;96773.00;5071298;28;20060;-74
2021/07/10 03:48:37;;;;;;;4.95;4.40;;;;;;;12.78;84.05;96767.97;5071845;28;20404;-74
2021/07/10 03:51:04;;;;;;;4.30;4.10;;;;;;;12.76;83.62;96766.59;5072623;28;20057;-74
2021/07/10 03:53:30;;;;;;;4.00;3.80;;;;;;;12.74;83.82;96766.00;5066453;28;20052;-73
2021/07/10 03:55:57;;;;;;;3.63;3.45;;;;;;;12.73;83.80;96759.16;5073926;28;20051;-74
2021/07/10 03:58:23;;;;;;;4.03;3.72;;;;;;;12.72;83.85;96757.53;5073846;28;20036;-74
2021/07/10 04:00:49;;;;;;;4.03;3.83;;;;;;;12.71;83.78;96761.22;5074160;28;20041;-74
2021/07/10 04:03:16;;;;;;;3.65;3.45;;;;;;;12.68;83.74;96766.91;5074768;28;20024;-73
2021/07/10 04:05:42;;;;;;;3.67;3.35;;;;;;;12.66;83.75;96763.69;5075860;28;20056;-74
2021/07/10 04:08:08;;;;;;;3.65;3.45;;;;;;;12.65;83.88;96768.16;5074741;28;20043;-73
2021/07/10 04:10:34;;;;;;;4.15;3.85;;;;;;;12.65;83.80;96775.25;5073933;28;20044;-73
2021/07/10 04:13:00;;;;;;;3.72;3.53;;;;;;;12.66;83.88;96771.56;5074745;28;20047;-74
2021/07/10 04:15:26;;;;;;;4.15;3.95;;;;;;;12.67;83.89;96776.63;5063833;28;20491;-73
2021/07/10 04:17:52;;;;;;;4.03;3.83;;;;;;;12.70;83.94;96768.28;5074188;28;20401;-74
2021/07/10 04:20:19;;;;;;;3.63;3.42;;;;;;;12.71;83.90;96767.25;5076058;28;20048;-74
2021/07/10 04:22:46;;;;;;;3.50;3.40;;;;;;;12.73;83.87;96767.03;5071783;28;20047;-74
2021/07/10 04:25:15;;;;;;;3.60;3.40;;;;;;;12.77;83.79;96773.47;5074466;28;20039;-74
2021/07/10 04:27:44;;;;;;;3.13;2.92;;;;;;;12.73;83.77;96777.56;5068346;28;20489;-74
2021/07/10 04:30:11;;;;;;;3.70;3.50;;;;;;;12.67;84.04;96776.63;5073988;28;20055;-73
2021/07/10 04:32:38;;;;;;;3.67;3.47;;;;;;;12.66;84.05;96780.31;5073097;28;20051;-73
2021/07/10 04:35:05;;;;;;;3.60;3.40;;;;;;;12.68;84.26;96777.44;5075636;28;20044;-73
2021/07/10 04:37:32;;;;;;;3.22;2.95;;;;;;;12.72;84.27;96783.84;5074369;28;20036;-74
2021/07/10 04:39:58;;;;;;;2.95;2.85;;;;;;;12.71;84.45;96777.00;5075009;28;20051;-73
2021/07/10 04:42:24;;;;;;;4.07;3.88;;;;;;;12.73;84.37;96777.56;5074265;28;20048;-74
2021/07/10 04:44:51;;;;;;;3.90;3.70;;;;;;;12.75;84.56;96778.94;5073190;28;20067;-74
2021/07/10 04:47:18;;;;;;;3.38;3.20;;;;;;;12.77;84.46;96784.00;5075864;28;20040;-73
2021/07/10 04:49:44;;;;;;;18.77;5.10;;;;;;;12.71;84.45;96788.31;5074158;28;20393;-73
2021/07/10 04:52:10;;;;;;;6.30;4.10;;;;;;;12.60;84.60;96794.34;5073706;28;20052;-73
2021/07/10 04:54:36;;;;;;;26.55;5.53;;;;;;;12.58;85.19;96783.22;5075474;28;20476;-73
2021/07/10 04:57:03;;;;;;;5.47;3.90;;;;;;;12.55;85.08;96784.47;5073956;28;20052;-74
2021/07/10 04:59:29;;;;;;;3.38;3.08;;;;;;;12.61;85.48;96782.78;5074305;28;20036;-73
2021/07/10 05:01:55;;;;;;;2.97;2.88;;;;;;;12.70;85.82;96780.63;5073186;28;20047;-73
2021/07/10 05:04:21;;;;;;;3.88;3.00;;;;;;;12.76;85.86;96785.81;5074548;28;20036;-73
2021/07/10 05:06:48;;;;;;;3.00;2.90;;;;;;;12.77;85.63;96782.16;5073273;28;20365;-73
2021/07/10 05:09:14;;;;;;;3.53;3.40;;;;;;;12.83;85.90;96791.00;5073056;28;20044;-74
2021/07/10 05:11:40;;;;;;;2.83;2.72;;;;;;;12.92;85.86;96789.66;5073927;28;20056;-74
2021/07/10 05:14:06;;;;;;;2.83;2.72;;;;;;;13.06;85.95;96784.19;5071277;28;20051;-73
2021/07/10 05:16:32;;;;;;;3.10;3.00;;;;;;;13.19;85.60;96789.28;5075055;28;20055;-73
2021/07/10 05:18:58;;;;;;;5.30;3.60;;;;;;;13.33;85.58;96782.00;5071766;28;20032;-74
2021/07/10 05:21:24;;;;;;;2.75;2.65;;;;;;;13.35;85.08;96783.34;5070787;28;20053;-73
2021/07/10 05:23:51;;;;;;;2.92;2.83;;;;;;;13.45;84.92;96782.00;5070290;28;20076;-73
2021/07/10 05:26:17;;;;;;;3.20;3.00;;;;;;;13.56;85.05;96783.84;5065190;28;20041;-74
2021/07/10 05:28:43;;;;;;;2.75;2.65;;;;;;;13.73;85.01;96782.16;5073657;28;20380;-74
2021/07/10 05:31:09;;;;;;;2.97;2.78;;;;;;;13.98;84.98;96779.28;5074711;28;20499;-73
2021/07/10 05:33:35;;;;;;;2.78;2.67;;;;;;;14.18;84.55;96778.09;5073175;28;20076;-74
2021/07/10 05:36:01;;;;;;;3.15;3.05;;;;;;;14.31;83.89;96784.94;5074561;28;20035;-73
2021/07/10 05:38:29;;;;;;;3.13;3.03;;;;;;;14.36;83.46;96787.66;5072836;28;20613;-74
2021/07/10 05:40:55;;;;;;;4.68;4.38;;;;;;;14.31;82.84;96785.75;5072318;28;20059;-73
2021/07/10 05:43:23;;;;;;;3.35;3.17;;;;;;;14.24;82.84;96781.63;5072544;28;20039;-74
2021/07/10 05:45:50;;;;;;;3.40;3.20;;;;;;;14.29;83.28;96777.25;5070750;28;20071;-73
2021/07/10 05:48:17;;;;;;;3.10;3.00;;;;;;;14.43;83.33;96771.72;5074203;28;20071;-77
2021/07/10 05:50:44;;;;;;;3.30;3.00;;;;;;;14.70;83.42;96766.72;5072556;28;20404;-73
2021/07/10 05:53:10;;;;;;;3.38;3.17;;;;;;;15.02;83.00;96759.13;5074120;28;20028;-73
2021/07/10 05:55:36;;;;;;;2.80;2.60;;;;;;;15.42;82.51;96753.69;5065017;28;20049;-73
2021/07/10 05:58:03;;;;;;;2.80;2.70;;;;;;;15.81;81.70;96766.16;5074012;28;20051;-74
2021/07/10 06:00:31;;;;;;;3.60;3.30;;;;;;;16.02;80.43;96759.31;5069070;28;20028;-73
2021/07/10 06:02:57;;;;;;;2.92;2.83;;;;;;;16.17;79.74;96764.81;5073981;28;20037;-73
2021/07/10 06:05:25;;;;;;;2.95;2.85;;;;;;;16.27;79.08;96756.19;5071937;28;20453;-74
2021/07/10 06:07:53;;;;;;;3.05;2.85;;;;;;;16.24;78.41;96762.78;5073331;28;20485;-74
2021/07/10 06:10:20;;;;;;;2.90;2.80;;;;;;;16.13;78.03;96762.91;5067979;28;20468;-74
2021/07/10 06:12:46;;;;;;;4.32;4.03;;;;;;;15.90;77.87;96762.06;5073801;28;20377;-73
2021/07/10 06:15:13;;;;;;;3.70;3.50;;;;;;;15.72;78.16;96767.63;5072204;28;20036;-73
2021/07/10 06:17:40;;;;;;;3.22;3.13;;;;;;;15.75;78.60;96759.22;5072469;28;20043;-74
2021/07/10 06:20:08;;;;;;;3.65;3.45;;;;;;;15.76;78.78;96758.97;5072925;28;20041;-73
2021/07/10 06:22:35;;;;;;;4.00;3.80;;;;;;;15.95;79.17;96764.78;5063950;28;20039;-74
2021/07/10 06:25:04;;;;;;;4.20;4.00;;;;;;;16.06;78.53;96763.06;5071709;28;20389;-74
2021/07/10 06:27:30;;;;;;;4.32;4.13;;;;;;;15.85;78.12;96766.47;5072286;28;20559;-73
2021/07/10 06:29:56;;;;;;;4.35;3.78;;;;;;;15.72;78.55;96772.91;5067838;28;20043;-73
2021/07/10 06:32:22;;;;;;;3.92;3.72;;;;;;;15.84;79.03;96765.69;5073630;28;20380;-73
2021/07/10 06:34:48;;;;;;;4.22;3.90;;;;;;;16.04;78.94;96765.16;5070234;28;20036;-74
2021/07/10 06:37:18;;;;;;;3.42;3.22;;;;;;;16.23;78.89;96765.66;5070413;28;20032;-74
2021/07/10 06:39:44;;;;;;;3.60;3.40;;;;;;;16.41;78.64;96759.25;5072578;28;20035;-73
2021/07/10 06:42:10;;;;;;;4.05;3.78;;;;;;;16.40;77.92;96758.47;5069940;28;20040;-74
2021/07/10 06:44:36;;;;;;;4.82;4.00;;;;;;;16.30;77.86;96757.56;5071699;28;20044;-74
2021/07/10 06:47:02;;;;;;;3.90;3.70;;;;;;;16.07;77.51;96761.25;5071111;28;20040;-74
2021/07/10 06:49:28;;;;;;;4.53;4.22;;;;;;;15.89;78.20;96760.47;5072675;28;20044;-73
2021/07/10 06:51:55;;;;;;;3.90;3.70;;;;;;;15.76;78.59;96764.25;5067831;28;20037;-74
2021/07/10 06:54:21;;;;;;;3.47;3.28;;;;;;;15.79;79.40;96769.06;5073366;28;20048;-73
2021/07/10 06:56:47;;;;;;;3.58;3.38;;;;;;;15.93;79.41;96772.16;5071843;28;20032;-74
2021/07/10 06:59:13;;;;;;;19.88;5.93;;;;;;;16.08;79.44;96774.19;5072586;28;20043;-74
2021/07/10 07:01:39;;;;;;;4.15;3.95;;;;;;;16.15;78.99;96766.09;5072015;28;20040;-74
2021/07/10 07:04:06;;;;;;;3.97;3.78;;;;;;;16.23;79.28;96757.72;5071367;28;20049;-74
2021/07/10 07:06:32;;;;;;;4.07;3.78;;;;;;;16.52;79.12;96757.53;5071609;28;20029;-74
2021/07/10 07:08:58;;;;;;;2.92;2.83;;;;;;;16.93;78.66;96756.13;5071276;28;20029;-73
2021/07/10 07:11:24;;;;;;;3.38;3.22;;;;;;;17.08;77.78;96747.53;5067299;28;20040;-73
2021/07/10 07:13:50;;;;;;;3.85;3.65;;;;;;;17.16;77.17;96749.72;5069832;28;20060;-74
2021/07/10 07:16:16;;;;;;;3.60;3.40;;;;;;;17.18;76.73;96742.31;5073063;28;20044;-74
2021/07/10 07:18:44;;;;;;;4.35;4.15;;;;;;;17.21;76.88;96739.16;5071934;28;20469;-75
2021/07/10 07:21:10;;;;;;;4.05;3.85;;;;;;;17.44;76.96;96743.31;5072734;28;20036;-73
2021/07/10 07:23:36;;;;;;;3.67;3.47;;;;;;;17.88;76.46;96736.19;5072847;28;20036;-73
2021/07/10 07:26:02;;;;;;;4.85;3.78;;;;;;;18.27;75.58;96731.34;5071172;28;20369;-73
2021/07/10 07:28:28;;;;;;;3.45;3.25;;;;;;;18.49;74.94;96733.00;5075829;28;20407;-74
2021/07/10 07:30:55;;;;;;;2.78;2.67;;;;;;;18.92;74.25;96725.66;5076677;28;20032;-74
2021/07/10 07:33:21;;;;;;;3.58;3.38;;;;;;;19.36;73.44;96715.31;5073567;28;20059;-74
2021/07/10 07:35:47;;;;;;;2.78;2.67;;;;;;;19.64;72.05;96718.47;5074960;28;20029;-74
2021/07/10 07:38:14;;;;;;;3.00;2.90;;;;;;;19.94;71.08;96716.81;5077109;28;20380;-74
2021/07/10 07:40:40;;;;;;;2.90;2.70;;;;;;;20.13;70.31;96714.34;5082995;28;20039;-74
2021/07/10 07:43:07;;;;;;;2.63;2.42;;;;;;;20.33;69.59;96708.16;5074670;28;20051;-73
2021/07/10 07:45:33;;;;;;;2.60;2.40;;;;;;;20.54;68.90;96709.63;5067880;28;20457;-79
2021/07/10 07:47:59;;;;;;;2.28;2.17;;;;;;;20.76;68.04;96703.94;5076276;28;20048;-74
2021/07/10 07:50:25;;;;;;;2.20;2.10;;;;;;;20.83;67.05;96704.44;5074581;28;20059;-74
2021/07/10 07:52:52;;;;;;;1.83;1.73;;;;;;;20.78;66.24;96701.78;5073824;28;20064;-73
2021/07/10 07:55:18;;;;;;;1.80;1.67;;;;;;;21.00;65.94;96696.03;5076238;28;20041;-74
2021/07/10 07:57:44;;;;;;;2.10;2.00;;;;;;;21.25;65.14;96695.03;5086143;28;20025;-73
2021/07/10 08:00:17;;;;;;;1.70;1.60;;;;;;;21.52;63.31;96684.94;5062384;28;20033;-74
2021/07/10 08:02:43;;;;;;;1.90;1.80;;;;;;;21.67;63.37;96690.94;5077006;28;20039;-73
2021/07/10 08:05:10;;;;;;;1.60;1.45;;;;;;;21.79;62.73;96685.19;5073507;28;20354;-74
2021/07/10 08:07:36;;;;;;;1.90;1.80;;;;;;;21.95;62.12;96672.47;5076080;28;20457;-74
2021/07/10 08:10:04;;;;;;;1.80;1.70;;;;;;;21.98;61.47;96671.88;5062311;28;20048;-74
2021/07/10 08:12:32;;;;;;;2.00;1.90;;;;;;;22.08;60.95;96668.31;5076144;28;20036;-74
2021/07/10 08:14:58;;;;;;;1.92;1.83;;;;;;;21.91;60.01;96666.09;5076123;28;20037;-74
2021/07/10 08:17:24;;;;;;;1.77;1.67;;;;;;;21.83;59.88;96664.84;5075960;28;20024;-74
2021/07/10 08:19:50;;;;;;;1.83;1.73;;;;;;;21.77;59.70;96662.53;5076378;28;20040;-74
2021/07/10 08:22:17;;;;;;;1.90;1.80;;;;;;;21.88;59.56;96653.31;5076352;28;20376;-73
2021/07/10 08:24:43;;;;;;;2.10;1.80;;;;;;;21.94;59.12;96660.19;5075323;28;20051;-74
2021/07/10 08:27:09;;;;;;;2.00;1.60;;;;;;;21.97;58.89;96653.50;5075389;28;20056;-75
2021/07/10 08:29:35;;;;;;;1.65;1.55;;;;;;;21.98;58.85;96642.50;5075812;28;20028;-74
2021/07/10 08:32:02;;;;;;;1.92;1.83;;;;;;;22.15;58.42;96641.22;5076034;28;20380;-73
2021/07/10 08:34:29;;;;;;;1.77;1.67;;;;;;;22.36;58.04;96641.78;5075664;28;20384;-74
2021/07/10 08:36:55;;;;;;;2.22;2.13;;;;;;;22.23;57.71;96637.94;5075057;28;20048;-73
2021/07/10 08:39:21;;;;;;;1.60;1.50;;;;;;;22.24;57.85;96635.00;5074642;28;20032;-74
2021/07/10 08:41:48;;;;;;;1.67;1.58;;;;;;;22.33;57.82;96631.69;5075508;28;20041;-73
2021/07/10 08:44:15;;;;;;;1.58;1.50;;;;;;;22.48;57.95;96634.13;5075517;28;20047;-73
2021/07/10 08:46:41;;;;;;;1.65;1.55;;;;;;;22.66;57.52;96622.63;5075708;28;20045;-74
2021/07/10 08:49:08;;;;;;;2.58;1.50;;;;;;;22.81;57.44;96616.25;5075530;28;20037;-73
2021/07/10 08:51:35;;;;;;;1.30;1.30;;;;;;;22.94;56.75;96608.56;5075229;28;20031;-73
2021/07/10 08:54:02;;;;;;;1.50;1.40;;;;;;;22.95;56.68;96605.59;5073149;28;20029;-73
2021/07/10 08:56:28;;;;;;;1.40;1.40;;;;;;;22.98;56.46;96598.88;5073102;28;20378;-74
2021/07/10 08:58:54;;;;;;;1.35;1.35;;;;;;;23.09;56.29;96603.75;5072536;28;20032;-74
2021/07/10 09:01:20;;;;;;;2.95;1.38;;;;;;;23.22;55.74;96599.50;5075104;28;20051;-73
2021/07/10 09:03:46;;;;;;;1.48;1.38;;;;;;;23.35;55.78;96589.13;5074462;28;20063;-73
2021/07/10 09:06:12;;;;;;;1.50;1.40;;;;;;;23.15;55.05;96593.75;5075410;28;20040;-73
2021/07/10 09:08:40;;;;;;;1.50;1.40;;;;;;;23.09;55.35;96600.28;5075099;28;20028;-73
2021/07/10 09:11:14;;;;;;;1.30;1.30;;;;;;;23.17;55.66;96599.63;5074484;28;20477;-74
2021/07/10 09:13:42;;;;;;;1.20;1.20;;;;;;;23.42;55.53;96593.00;5075275;28;20357;-74
2021/07/10 09:16:13;;;;;;;1.33;1.25;;;;;;;23.49;55.12;96589.94;5075009;28;20049;-73
2021/07/10 09:18:56;;;;;;;1.33;1.23;;;;;;;23.57;55.23;96591.91;5075250;28;20041;-73
2021/07/10 09:21:45;;;;;;;1.30;1.25;;;;;;;23.74;54.16;96582.47;5074801;28;20048;-74
2021/07/10 09:24:17;;;;;;;1.10;1.10;;;;;;;23.78;54.16;96583.50;5074648;28;20037;-74
2021/07/10 09:26:45;;;;;;;1.10;1.00;;;;;;;23.43;54.85;96588.44;5075165;28;20389;-73
2021/07/10 09:29:15;;;;;;;1.20;1.10;;;;;;;23.53;55.09;96596.28;5073574;28;20040;-73
2021/07/10 09:31:47;;;;;;;0.80;0.80;;;;;;;23.54;50.87;96563.06;5074723;28;20024;-73
2021/07/10 09:34:19;;;;;;;1.17;1.10;;;;;;;23.70;52.75;96572.34;5074862;28;20025;-73
2021/07/10 09:36:50;;;;;;;0.95;0.95;;;;;;;23.88;52.27;96567.22;5074912;28;20024;-73
2021/07/10 09:39:17;;;;;;;1.02;1.00;;;;;;;23.99;52.44;96565.91;5062272;28;20048;-74
2021/07/10 09:41:43;;;;;;;1.13;0.65;;;;;;;23.99;52.05;96563.22;5074732;28;20488;-73
2021/07/10 09:44:13;;;;;;;0.80;0.80;;;;;;;24.19;51.58;96553.94;5074016;28;20045;-73
2021/07/10 09:46:40;;;;;;;0.70;0.70;;;;;;;24.36;51.03;96544.44;5074715;28;20362;-73
2021/07/10 09:49:30;;;;;;;0.90;0.90;;;;;;;24.55;48.39;96520.16;5074651;28;20036;-73
2021/07/10 09:52:10;;;;;;;1.15;0.80;;;;;;;24.56;46.56;96505.66;5074416;28;20032;-73
2021/07/10 09:54:42;;;;;;;1.08;0.70;;;;;;;24.41;46.83;96518.31;5074798;28;20052;-73
2021/07/10 09:57:17;;;;;;;0.60;0.60;;;;;;;24.45;48.79;96530.00;5074535;28;20055;-73
2021/07/10 09:59:59;;;;;;;0.77;0.77;;;;;;;24.50;46.84;96519.19;5074342;28;20055;-73
2021/07/10 10:02:29;;;;;;;0.85;0.70;;;;;;;24.55;47.92;96536.25;5073659;28;20393;-73
2021/07/10 10:05:05;;;;;;;0.75;0.70;;;;;;;24.63;46.82;96557.78;5073765;28;20052;-73
2021/07/10 10:07:52;;;;;;;1.30;0.70;;;;;;;24.55;43.89;96545.09;5074595;28;20035;-73
2021/07/10 10:10:24;;;;;;;0.57;0.57;;;;;;;24.56;45.77;96564.66;5073364;28;20043;-73
2021/07/10 10:13:05;;;;;;;0.70;0.70;;;;;;;24.76;44.36;96544.56;5073169;28;20056;-74
2021/07/10 10:15:41;;;;;;;1.52;0.90;;;;;;;24.87;45.79;96557.44;5073598;28;20041;-73
2021/07/10 10:18:10;;;;;;;0.73;0.70;;;;;;;24.99;45.19;96562.22;5073813;28;20491;-73
2021/07/10 10:20:37;;;;;;;0.70;0.65;;;;;;;24.77;44.58;96579.13;5074254;28;20040;-73
2021/07/10 10:23:04;;;;;;;1.38;0.60;;;;;;;24.83;44.55;96583.28;5073882;28;20033;-74
2021/07/10 10:25:32;;;;;;;0.60;0.60;;;;;;;24.83;43.76;96577.13;5073956;28;20033;-73
2021/07/10 10:27:59;;;;;;;0.60;0.60;;;;;;;24.90;43.87;96574.78;5073809;28;20358;-73
2021/07/10 10:30:25;;;;;;;1.27;0.60;;;;;;;25.03;43.22;96575.81;5073908;28;20029;-73
2021/07/10 10:32:51;;;;;;;0.60;0.60;;;;;;;25.17;42.67;96570.34;5072963;28;20052;-74
2021/07/10 10:35:18;;;;;;;0.80;0.80;;;;;;;25.22;42.60;96560.31;5073926;28;20052;-73
2021/07/10 10:37:45;;;;;;;0.60;0.60;;;;;;;25.39;42.26;96558.78;5073585;28;20028;-73
2021/07/10 10:40:15;;;;;;;1.20;0.50;;;;;;;25.44;41.16;96564.03;5073608;28;20032;-73
2021/07/10 10:42:45;;;;;;;0.40;0.40;;;;;;;25.60;40.12;96550.94;5073656;28;20048;-73
2021/07/10 10:45:12;;;;;;;0.60;0.60;;;;;;;25.56;40.52;96564.22;5072734;28;20057;-73
2021/07/10 10:47:45;;;;;;;0.68;0.68;;;;;;;25.64;38.69;96549.22;5074107;28;20405;-73
2021/07/10 10:50:27;;;;;;;0.55;0.55;;;;;;;25.87;38.92;96545.34;5073456;28;20036;-73
2021/07/10 10:52:56;;;;;;;0.50;0.50;;;;;;;25.75;39.66;96552.44;5072619;28;20047;-74
2021/07/10 10:55:28;;;;;;;0.38;0.38;;;;;;;25.95;37.40;96533.03;5073684;28;20484;-73
2021/07/10 10:58:14;;;;;;;0.50;0.50;;;;;;;26.14;39.02;96538.09;5073455;28;21160;-73
2021/07/10 11:00:43;;;;;;;0.43;0.38;;;;;;;26.32;38.85;96533.50;5074053;28;20028;-73
2021/07/10 11:03:11;;;;;;;0.40;0.40;;;;;;;26.17;37.56;96537.47;5072818;28;20029;-73
2021/07/10 11:05:43;;;;;;;0.30;0.30;;;;;;;26.24;36.22;96534.31;5074014;28;20035;-73
2021/07/10 11:08:21;;;;;;;0.40;0.40;;;;;;;26.36;35.63;96523.69;5073312;28;20039;-74
2021/07/10 11:11:07;;;;;;;0.40;0.40;;;;;;;26.53;36.05;96512.13;5073667;28;20037;-73
2021/07/10 11:13:34;;;;;;;0.50;0.50;;;;;;;26.53;36.21;96518.28;5066636;28;20039;-74
2021/07/10 11:16:10;;;;;;;0.40;0.40;;;;;;;26.44;35.68;96509.47;5071446;28;20040;-73
2021/07/10 11:18:45;;;;;;;0.52;0.52;;;;;;;26.49;36.95;96509.28;5073859;28;20029;-73
2021/07/10 11:21:11;;;;;;;0.63;0.63;;;;;;;26.49;36.59;96503.91;5072643;28;20049;-74
2021/07/10 11:23:37;;;;;;;0.73;0.50;;;;;;;26.35;36.80;96502.50;5073419;28;20036;-74
2021/07/10 11:26:11;;;;;;;0.57;0.55;;;;;;;26.30;36.72;96501.56;5073117;28;20032;-73
2021/07/10 11:28:50;;;;;;;0.68;0.68;;;;;;;26.45;36.18;96483.34;5072977;28;20048;-74
2021/07/10 11:31:24;;;;;;;0.90;0.68;;;;;;;26.62;37.57;96491.41;5073361;28;20037;-73
2021/07/10 11:34:01;;;;;;;0.60;0.60;;;;;;;26.54;37.89;96484.09;5072912;28;20025;-73
2021/07/10 11:36:42;;;;;;;0.73;0.55;;;;;;;26.74;38.98;96485.38;5073148;28;20032;-73